sensor_id;sensor_type;location;lat;lon;timestamp;P1;durP1;ratioP1;P2;durP2;ratioP2
65658;SDS011;60181;53.258;6.932;2022-12-18T00:02:51;41.30;;;14.60;;
65658;SDS011;60181;53.258;6.932;2022-12-18T00:07:19;36.90;;;14.80;;
65658;SDS011;60181;53.258;6.932;2022-12-18T00:11:47;36.90;;;14.80;;
65658;SDS011;60181;53.258;6.932;2022-12-18T00:16:16;35.00;;;13.20;;
65658;SDS011;60181;53.258;6.932;2022-12-18T00:20:43;35.00;;;13.20;;
65658;SDS011;60181;53.258;6.932;2022-12-18T00:25:11;39.70;;;14.70;;
65658;SDS011;60181;53.258;6.932;2022-12-18T00:29:42;39.70;;;14.70;;
65658;SDS011;60181;53.258;6.932;2022-12-18T00:34:08;41.10;;;15.70;;
65658;SDS011;60181;53.258;6.932;2022-12-18T00:38:35;41.10;;;15.70;;
65658;SDS011;60181;53.258;6.932;2022-12-18T00:43:03;41.10;;;15.70;;
65658;SDS011;60181;53.258;6.932;2022-12-18T00:47:31;36.70;;;14.80;;
65658;SDS011;60181;53.258;6.932;2022-12-18T00:51:59;36.70;;;14.80;;
65658;SDS011;60181;53.258;6.932;2022-12-18T01:00:55;37.50;;;14.70;;
65658;SDS011;60181;53.258;6.932;2022-12-18T01:05:23;43.40;;;15.70;;
65658;SDS011;60181;53.258;6.932;2022-12-18T01:09:51;43.40;;;15.70;;
65658;SDS011;60181;53.258;6.932;2022-12-18T01:14:19;40.50;;;15.30;;
65658;SDS011;60181;53.258;6.932;2022-12-18T01:18:47;40.50;;;15.30;;
65658;SDS011;60181;53.258;6.932;2022-12-18T01:23:15;40.50;;;15.30;;
65658;SDS011;60181;53.258;6.932;2022-12-18T01:27:43;40.90;;;15.30;;
65658;SDS011;60181;53.258;6.932;2022-12-18T01:32:11;40.90;;;15.30;;
65658;SDS011;60181;53.258;6.932;2022-12-18T01:36:39;43.70;;;16.20;;
65658;SDS011;60181;53.258;6.932;2022-12-18T01:41:07;43.70;;;16.20;;
65658;SDS011;60181;53.258;6.932;2022-12-18T01:45:35;43.00;;;16.40;;
65658;SDS011;60181;53.258;6.932;2022-12-18T01:50:16;43.00;;;16.40;;
65658;SDS011;60181;53.258;6.932;2022-12-18T01:54:31;43.50;;;15.10;;
65658;SDS011;60181;53.258;6.932;2022-12-18T01:59:02;43.50;;;15.10;;
65658;SDS011;60181;53.258;6.932;2022-12-18T02:03:27;40.70;;;14.60;;
65658;SDS011;60181;53.258;6.932;2022-12-18T02:08:00;40.70;;;14.60;;
65658;SDS011;60181;53.258;6.932;2022-12-18T02:12:23;40.70;;;14.60;;
65658;SDS011;60181;53.258;6.932;2022-12-18T02:17:01;40.50;;;15.50;;
65658;SDS011;60181;53.258;6.932;2022-12-18T02:30:15;40.30;;;15.10;;
65658;SDS011;60181;53.258;6.932;2022-12-18T02:34:43;43.00;;;15.50;;
65658;SDS011;60181;53.258;6.932;2022-12-18T02:39:11;43.00;;;15.50;;
65658;SDS011;60181;53.258;6.932;2022-12-18T02:43:39;38.50;;;15.00;;
65658;SDS011;60181;53.258;6.932;2022-12-18T02:48:07;38.50;;;15.00;;
65658;SDS011;60181;53.258;6.932;2022-12-18T02:52:37;38.50;;;15.00;;
65658;SDS011;60181;53.258;6.932;2022-12-18T02:57:05;43.20;;;15.50;;
65658;SDS011;60181;53.258;6.932;2022-12-18T03:01:33;43.20;;;15.50;;
65658;SDS011;60181;53.258;6.932;2022-12-18T03:06:03;42.10;;;15.50;;
65658;SDS011;60181;53.258;6.932;2022-12-18T03:10:31;42.10;;;15.50;;
65658;SDS011;60181;53.258;6.932;2022-12-18T03:15:14;43.50;;;16.00;;
65658;SDS011;60181;53.258;6.932;2022-12-18T03:19:24;43.50;;;16.00;;
65658;SDS011;60181;53.258;6.932;2022-12-18T03:23:50;43.70;;;15.60;;
65658;SDS011;60181;53.258;6.932;2022-12-18T03:28:20;43.70;;;15.60;;
65658;SDS011;60181;53.258;6.932;2022-12-18T03:32:54;43.70;;;15.60;;
65658;SDS011;60181;53.258;6.932;2022-12-18T03:37:14;47.30;;;16.40;;
65658;SDS011;60181;53.258;6.932;2022-12-18T03:41:43;47.30;;;16.40;;
65658;SDS011;60181;53.258;6.932;2022-12-18T03:50:44;44.80;;;16.80;;
65658;SDS011;60181;53.258;6.932;2022-12-18T03:55:07;45.70;;;16.20;;
65658;SDS011;60181;53.258;6.932;2022-12-18T03:59:34;45.70;;;16.20;;
65658;SDS011;60181;53.258;6.932;2022-12-18T04:04:03;47.30;;;16.40;;
65658;SDS011;60181;53.258;6.932;2022-12-18T04:08:31;47.30;;;16.40;;
65658;SDS011;60181;53.258;6.932;2022-12-18T04:12:58;47.30;;;16.40;;
65658;SDS011;60181;53.258;6.932;2022-12-18T04:17:26;46.00;;;16.00;;
65658;SDS011;60181;53.258;6.932;2022-12-18T04:21:54;46.00;;;16.00;;
65658;SDS011;60181;53.258;6.932;2022-12-18T04:26:22;46.70;;;16.50;;
65658;SDS011;60181;53.258;6.932;2022-12-18T04:30:50;46.70;;;16.50;;
65658;SDS011;60181;53.258;6.932;2022-12-18T04:35:18;48.80;;;16.80;;
65658;SDS011;60181;53.258;6.932;2022-12-18T04:39:46;48.80;;;16.80;;
65658;SDS011;60181;53.258;6.932;2022-12-18T04:44:14;47.20;;;17.00;;
65658;SDS011;60181;53.258;6.932;2022-12-18T04:48:44;47.20;;;17.00;;
65658;SDS011;60181;53.258;6.932;2022-12-18T04:53:13;47.20;;;17.00;;
65658;SDS011;60181;53.258;6.932;2022-12-18T04:57:38;47.50;;;16.80;;
65658;SDS011;60181;53.258;6.932;2022-12-18T05:02:06;47.50;;;16.80;;
65658;SDS011;60181;53.258;6.932;2022-12-18T05:06:37;47.90;;;16.90;;
65658;SDS011;60181;53.258;6.932;2022-12-18T05:11:04;47.90;;;16.90;;
65658;SDS011;60181;53.258;6.932;2022-12-18T05:15:31;45.40;;;16.40;;
65658;SDS011;60181;53.258;6.932;2022-12-18T05:19:58;45.40;;;16.40;;
65658;SDS011;60181;53.258;6.932;2022-12-18T05:24:26;44.30;;;16.20;;
65658;SDS011;60181;53.258;6.932;2022-12-18T05:29:00;44.30;;;16.20;;
65658;SDS011;60181;53.258;6.932;2022-12-18T05:33:23;44.30;;;16.20;;
65658;SDS011;60181;53.258;6.932;2022-12-18T05:37:50;43.80;;;16.00;;
65658;SDS011;60181;53.258;6.932;2022-12-18T05:42:18;43.80;;;16.00;;
65658;SDS011;60181;53.258;6.932;2022-12-18T05:46:46;41.80;;;16.10;;
65658;SDS011;60181;53.258;6.932;2022-12-18T05:51:15;41.80;;;16.10;;
65658;SDS011;60181;53.258;6.932;2022-12-18T05:55:43;44.40;;;15.70;;
65658;SDS011;60181;53.258;6.932;2022-12-18T06:00:11;44.40;;;15.70;;
65658;SDS011;60181;53.258;6.932;2022-12-18T06:04:38;40.30;;;15.60;;
65658;SDS011;60181;53.258;6.932;2022-12-18T06:09:06;40.30;;;15.60;;
65658;SDS011;60181;53.258;6.932;2022-12-18T06:13:34;40.30;;;15.60;;
65658;SDS011;60181;53.258;6.932;2022-12-18T06:18:02;39.60;;;15.00;;
65658;SDS011;60181;53.258;6.932;2022-12-18T06:22:31;39.60;;;15.00;;
65658;SDS011;60181;53.258;6.932;2022-12-18T06:26:58;55.90;;;16.00;;
65658;SDS011;60181;53.258;6.932;2022-12-18T06:31:26;55.90;;;16.00;;
65658;SDS011;60181;53.258;6.932;2022-12-18T06:35:54;41.00;;;15.50;;
65658;SDS011;60181;53.258;6.932;2022-12-18T06:40:22;41.00;;;15.50;;
65658;SDS011;60181;53.258;6.932;2022-12-18T06:44:50;45.00;;;15.40;;
65658;SDS011;60181;53.258;6.932;2022-12-18T06:49:18;45.00;;;15.40;;
65658;SDS011;60181;53.258;6.932;2022-12-18T06:53:46;42.40;;;14.70;;
65658;SDS011;60181;53.258;6.932;2022-12-18T06:58:29;42.40;;;14.70;;
65658;SDS011;60181;53.258;6.932;2022-12-18T07:02:42;42.40;;;14.70;;
65658;SDS011;60181;53.258;6.932;2022-12-18T07:07:10;39.00;;;14.40;;
65658;SDS011;60181;53.258;6.932;2022-12-18T07:11:38;39.00;;;14.40;;
65658;SDS011;60181;53.258;6.932;2022-12-18T07:16:24;37.00;;;14.10;;
65658;SDS011;60181;53.258;6.932;2022-12-18T07:20:34;37.00;;;14.10;;
65658;SDS011;60181;53.258;6.932;2022-12-18T07:25:02;36.30;;;13.50;;
65658;SDS011;60181;53.258;6.932;2022-12-18T07:29:30;36.30;;;13.50;;
65658;SDS011;60181;53.258;6.932;2022-12-18T07:33:58;38.10;;;13.70;;
65658;SDS011;60181;53.258;6.932;2022-12-18T07:38:26;38.10;;;13.70;;
65658;SDS011;60181;53.258;6.932;2022-12-18T07:42:54;38.10;;;13.70;;
65658;SDS011;60181;53.258;6.932;2022-12-18T07:47:22;34.30;;;13.10;;
65658;SDS011;60181;53.258;6.932;2022-12-18T07:51:50;34.30;;;13.10;;
65658;SDS011;60181;53.258;6.932;2022-12-18T07:56:18;33.20;;;12.60;;
65658;SDS011;60181;53.258;6.932;2022-12-18T08:00:46;33.20;;;12.60;;
65658;SDS011;60181;53.258;6.932;2022-12-18T08:05:19;28.50;;;11.50;;
65658;SDS011;60181;53.258;6.932;2022-12-18T08:09:42;28.50;;;11.50;;
65658;SDS011;60181;53.258;6.932;2022-12-18T08:14:10;29.50;;;11.70;;
65658;SDS011;60181;53.258;6.932;2022-12-18T08:18:38;29.50;;;11.70;;
65658;SDS011;60181;53.258;6.932;2022-12-18T08:23:06;29.50;;;11.70;;
65658;SDS011;60181;53.258;6.932;2022-12-18T08:27:34;26.40;;;10.90;;
65658;SDS011;60181;53.258;6.932;2022-12-18T08:32:02;26.40;;;10.90;;
65658;SDS011;60181;53.258;6.932;2022-12-18T08:36:30;28.60;;;10.70;;
65658;SDS011;60181;53.258;6.932;2022-12-18T08:40:58;28.60;;;10.70;;
65658;SDS011;60181;53.258;6.932;2022-12-18T08:45:26;28.20;;;10.50;;
65658;SDS011;60181;53.258;6.932;2022-12-18T08:49:54;28.20;;;10.50;;
65658;SDS011;60181;53.258;6.932;2022-12-18T08:54:22;28.20;;;10.70;;
65658;SDS011;60181;53.258;6.932;2022-12-18T08:58:53;28.20;;;10.70;;
65658;SDS011;60181;53.258;6.932;2022-12-18T09:03:18;28.20;;;10.70;;
65658;SDS011;60181;53.258;6.932;2022-12-18T09:07:46;27.00;;;10.90;;
65658;SDS011;60181;53.258;6.932;2022-12-18T09:12:14;27.00;;;10.90;;
65658;SDS011;60181;53.258;6.932;2022-12-18T09:16:42;24.70;;;11.00;;
65658;SDS011;60181;53.258;6.932;2022-12-18T09:21:13;24.70;;;11.00;;
65658;SDS011;60181;53.258;6.932;2022-12-18T09:25:38;23.60;;;10.20;;
65658;SDS011;60181;53.258;6.932;2022-12-18T09:30:06;23.60;;;10.20;;
65658;SDS011;60181;53.258;6.932;2022-12-18T09:34:34;22.10;;;9.40;;
65658;SDS011;60181;53.258;6.932;2022-12-18T09:39:02;22.10;;;9.40;;
65658;SDS011;60181;53.258;6.932;2022-12-18T09:43:37;22.10;;;9.40;;
65658;SDS011;60181;53.258;6.932;2022-12-18T09:48:00;22.50;;;10.00;;
65658;SDS011;60181;53.258;6.932;2022-12-18T09:56:54;26.60;;;9.10;;
65658;SDS011;60181;53.258;6.932;2022-12-18T10:01:22;26.60;;;9.10;;
65658;SDS011;60181;53.258;6.932;2022-12-18T10:06:04;21.70;;;8.80;;
65658;SDS011;60181;53.258;6.932;2022-12-18T10:14:57;19.90;;;9.00;;
65658;SDS011;60181;53.258;6.932;2022-12-18T10:19:33;19.90;;;9.00;;
65658;SDS011;60181;53.258;6.932;2022-12-18T10:23:57;21.00;;;8.70;;
65658;SDS011;60181;53.258;6.932;2022-12-18T10:28:12;21.00;;;8.70;;
65658;SDS011;60181;53.258;6.932;2022-12-18T10:32:38;21.00;;;8.70;;
65658;SDS011;60181;53.258;6.932;2022-12-18T10:37:06;21.00;;;8.50;;
65658;SDS011;60181;53.258;6.932;2022-12-18T10:41:34;21.00;;;8.50;;
65658;SDS011;60181;53.258;6.932;2022-12-18T10:50:31;18.70;;;8.10;;
65658;SDS011;60181;53.258;6.932;2022-12-18T10:54:58;19.70;;;8.40;;
65658;SDS011;60181;53.258;6.932;2022-12-18T10:59:26;19.70;;;8.40;;
65658;SDS011;60181;53.258;6.932;2022-12-18T11:08:22;18.60;;;8.30;;
65658;SDS011;60181;53.258;6.932;2022-12-18T11:12:50;18.60;;;8.30;;
65658;SDS011;60181;53.258;6.932;2022-12-18T11:17:21;16.70;;;7.60;;
65658;SDS011;60181;53.258;6.932;2022-12-18T11:21:46;16.70;;;7.60;;
65658;SDS011;60181;53.258;6.932;2022-12-18T11:26:14;15.40;;;7.30;;
65658;SDS011;60181;53.258;6.932;2022-12-18T11:30:42;15.40;;;7.30;;
65658;SDS011;60181;53.258;6.932;2022-12-18T11:35:25;17.70;;;7.80;;
65658;SDS011;60181;53.258;6.932;2022-12-18T11:39:40;17.70;;;7.80;;
65658;SDS011;60181;53.258;6.932;2022-12-18T11:44:06;16.30;;;7.30;;
65658;SDS011;60181;53.258;6.932;2022-12-18T11:48:37;16.30;;;7.30;;
65658;SDS011;60181;53.258;6.932;2022-12-18T11:53:02;16.30;;;7.30;;
65658;SDS011;60181;53.258;6.932;2022-12-18T11:57:34;15.70;;;7.00;;
65658;SDS011;60181;53.258;6.932;2022-12-18T12:06:35;14.10;;;6.90;;
65658;SDS011;60181;53.258;6.932;2022-12-18T12:15:46;14.30;;;6.40;;
65658;SDS011;60181;53.258;6.932;2022-12-18T12:20:02;14.30;;;6.40;;
65658;SDS011;60181;53.258;6.932;2022-12-18T12:24:39;14.40;;;6.40;;
65658;SDS011;60181;53.258;6.932;2022-12-18T12:29:02;14.40;;;6.40;;
65658;SDS011;60181;53.258;6.932;2022-12-18T12:37:53;13.90;;;6.80;;
65658;SDS011;60181;53.258;6.932;2022-12-18T12:42:15;13.90;;;6.80;;
65658;SDS011;60181;53.258;6.932;2022-12-18T12:46:39;14.10;;;6.20;;
65658;SDS011;60181;53.258;6.932;2022-12-18T12:51:21;14.10;;;6.20;;
65658;SDS011;60181;53.258;6.932;2022-12-18T12:55:34;14.10;;;6.10;;
65658;SDS011;60181;53.258;6.932;2022-12-18T13:00:07;14.10;;;6.10;;
65658;SDS011;60181;53.258;6.932;2022-12-18T13:04:38;13.80;;;6.10;;
65658;SDS011;60181;53.258;6.932;2022-12-18T13:08:59;13.80;;;6.10;;
65658;SDS011;60181;53.258;6.932;2022-12-18T13:13:27;13.80;;;6.10;;
65658;SDS011;60181;53.258;6.932;2022-12-18T13:22:22;11.80;;;6.10;;
65658;SDS011;60181;53.258;6.932;2022-12-18T13:26:50;12.70;;;5.80;;
65658;SDS011;60181;53.258;6.932;2022-12-18T13:44:42;13.30;;;5.30;;
65658;SDS011;60181;53.258;6.932;2022-12-18T13:58:06;11.30;;;5.30;;
65658;SDS011;60181;53.258;6.932;2022-12-18T14:02:34;11.30;;;5.30;;
65658;SDS011;60181;53.258;6.932;2022-12-18T14:07:10;10.80;;;5.00;;
65658;SDS011;60181;53.258;6.932;2022-12-18T14:11:30;10.80;;;5.00;;
65658;SDS011;60181;53.258;6.932;2022-12-18T14:15:58;10.40;;;5.00;;
65658;SDS011;60181;53.258;6.932;2022-12-18T14:20:27;10.40;;;5.00;;
65658;SDS011;60181;53.258;6.932;2022-12-18T14:25:16;11.10;;;5.40;;
65658;SDS011;60181;53.258;6.932;2022-12-18T14:29:26;11.10;;;5.40;;
65658;SDS011;60181;53.258;6.932;2022-12-18T14:33:50;11.10;;;5.40;;
65658;SDS011;60181;53.258;6.932;2022-12-18T14:38:25;10.60;;;5.40;;
65658;SDS011;60181;53.258;6.932;2022-12-18T14:42:45;10.60;;;5.40;;
65658;SDS011;60181;53.258;6.932;2022-12-18T14:47:15;10.90;;;5.10;;
65658;SDS011;60181;53.258;6.932;2022-12-18T14:51:42;10.90;;;5.10;;
65658;SDS011;60181;53.258;6.932;2022-12-18T14:56:25;10.30;;;4.80;;
65658;SDS011;60181;53.258;6.932;2022-12-18T15:00:37;10.30;;;4.80;;
65658;SDS011;60181;53.258;6.932;2022-12-18T15:05:16;9.70;;;4.70;;
65658;SDS011;60181;53.258;6.932;2022-12-18T15:09:33;9.70;;;4.70;;
65658;SDS011;60181;53.258;6.932;2022-12-18T15:18:30;11.30;;;5.20;;
65658;SDS011;60181;53.258;6.932;2022-12-18T15:22:57;11.30;;;5.20;;
65658;SDS011;60181;53.258;6.932;2022-12-18T15:27:29;10.60;;;5.20;;
65658;SDS011;60181;53.258;6.932;2022-12-18T15:32:03;10.60;;;5.20;;
65658;SDS011;60181;53.258;6.932;2022-12-18T15:36:22;11.70;;;5.20;;
65658;SDS011;60181;53.258;6.932;2022-12-18T15:40:49;11.70;;;5.20;;
65658;SDS011;60181;53.258;6.932;2022-12-18T15:45:17;9.50;;;4.90;;
65658;SDS011;60181;53.258;6.932;2022-12-18T15:49:45;9.50;;;4.90;;
65658;SDS011;60181;53.258;6.932;2022-12-18T15:54:13;11.20;;;5.20;;
65658;SDS011;60181;53.258;6.932;2022-12-18T15:58:41;11.20;;;5.20;;
65658;SDS011;60181;53.258;6.932;2022-12-18T16:03:09;11.20;;;5.20;;
65658;SDS011;60181;53.258;6.932;2022-12-18T16:07:37;9.90;;;4.80;;
65658;SDS011;60181;53.258;6.932;2022-12-18T16:12:11;9.90;;;4.80;;
65658;SDS011;60181;53.258;6.932;2022-12-18T16:16:33;11.90;;;5.20;;
65658;SDS011;60181;53.258;6.932;2022-12-18T16:21:01;11.90;;;5.20;;
65658;SDS011;60181;53.258;6.932;2022-12-18T16:25:29;10.00;;;4.90;;
65658;SDS011;60181;53.258;6.932;2022-12-18T16:29:57;10.00;;;4.90;;
65658;SDS011;60181;53.258;6.932;2022-12-18T16:34:26;10.30;;;5.00;;
65658;SDS011;60181;53.258;6.932;2022-12-18T16:38:53;10.30;;;5.00;;
65658;SDS011;60181;53.258;6.932;2022-12-18T16:43:21;10.30;;;5.00;;
65658;SDS011;60181;53.258;6.932;2022-12-18T16:47:49;8.90;;;4.50;;
65658;SDS011;60181;53.258;6.932;2022-12-18T16:52:18;8.90;;;4.50;;
65658;SDS011;60181;53.258;6.932;2022-12-18T16:56:45;9.30;;;4.70;;
65658;SDS011;60181;53.258;6.932;2022-12-18T17:01:13;9.30;;;4.70;;
65658;SDS011;60181;53.258;6.932;2022-12-18T17:05:41;8.20;;;4.40;;
65658;SDS011;60181;53.258;6.932;2022-12-18T17:10:09;8.20;;;4.40;;
65658;SDS011;60181;53.258;6.932;2022-12-18T17:14:37;9.10;;;4.90;;
65658;SDS011;60181;53.258;6.932;2022-12-18T17:19:05;9.10;;;4.90;;
65658;SDS011;60181;53.258;6.932;2022-12-18T17:23:33;9.10;;;4.90;;
65658;SDS011;60181;53.258;6.932;2022-12-18T17:28:01;9.60;;;4.60;;
65658;SDS011;60181;53.258;6.932;2022-12-18T17:32:29;9.60;;;4.60;;
65658;SDS011;60181;53.258;6.932;2022-12-18T17:36:57;8.60;;;4.30;;
65658;SDS011;60181;53.258;6.932;2022-12-18T17:41:26;8.60;;;4.30;;
65658;SDS011;60181;53.258;6.932;2022-12-18T17:45:53;10.10;;;4.40;;
65658;SDS011;60181;53.258;6.932;2022-12-18T17:50:21;10.10;;;4.40;;
65658;SDS011;60181;53.258;6.932;2022-12-18T17:54:49;8.40;;;4.30;;
65658;SDS011;60181;53.258;6.932;2022-12-18T17:59:17;8.40;;;4.30;;
65658;SDS011;60181;53.258;6.932;2022-12-18T18:03:45;8.40;;;4.30;;
65658;SDS011;60181;53.258;6.932;2022-12-18T18:08:13;7.00;;;4.10;;
65658;SDS011;60181;53.258;6.932;2022-12-18T18:12:41;7.00;;;4.10;;
65658;SDS011;60181;53.258;6.932;2022-12-18T18:17:09;8.10;;;4.00;;
65658;SDS011;60181;53.258;6.932;2022-12-18T18:21:38;8.10;;;4.00;;
65658;SDS011;60181;53.258;6.932;2022-12-18T18:26:06;8.00;;;4.10;;
65658;SDS011;60181;53.258;6.932;2022-12-18T18:30:35;8.00;;;4.10;;
65658;SDS011;60181;53.258;6.932;2022-12-18T18:35:01;7.50;;;4.00;;
65658;SDS011;60181;53.258;6.932;2022-12-18T18:39:29;7.50;;;4.00;;
65658;SDS011;60181;53.258;6.932;2022-12-18T18:43:57;7.50;;;4.00;;
65658;SDS011;60181;53.258;6.932;2022-12-18T18:48:26;6.70;;;3.70;;
65658;SDS011;60181;53.258;6.932;2022-12-18T18:52:53;6.70;;;3.70;;
65658;SDS011;60181;53.258;6.932;2022-12-18T18:57:21;7.00;;;3.40;;
65658;SDS011;60181;53.258;6.932;2022-12-18T19:01:49;7.00;;;3.40;;
65658;SDS011;60181;53.258;6.932;2022-12-18T19:06:24;6.70;;;3.70;;
65658;SDS011;60181;53.258;6.932;2022-12-18T19:10:45;6.70;;;3.70;;
65658;SDS011;60181;53.258;6.932;2022-12-18T19:15:13;6.80;;;3.70;;
65658;SDS011;60181;53.258;6.932;2022-12-18T19:19:41;6.80;;;3.70;;
65658;SDS011;60181;53.258;6.932;2022-12-18T19:24:09;6.80;;;3.70;;
65658;SDS011;60181;53.258;6.932;2022-12-18T19:28:37;7.10;;;3.60;;
65658;SDS011;60181;53.258;6.932;2022-12-18T19:33:05;7.10;;;3.60;;
65658;SDS011;60181;53.258;6.932;2022-12-18T19:37:33;6.60;;;3.60;;
65658;SDS011;60181;53.258;6.932;2022-12-18T19:42:01;6.60;;;3.60;;
65658;SDS011;60181;53.258;6.932;2022-12-18T19:46:29;6.70;;;3.50;;
65658;SDS011;60181;53.258;6.932;2022-12-18T19:50:57;6.70;;;3.50;;
65658;SDS011;60181;53.258;6.932;2022-12-18T19:55:25;6.70;;;3.50;;
65658;SDS011;60181;53.258;6.932;2022-12-18T19:59:53;6.70;;;3.50;;
65658;SDS011;60181;53.258;6.932;2022-12-18T20:04:21;6.90;;;3.40;;
65658;SDS011;60181;53.258;6.932;2022-12-18T20:08:49;6.90;;;3.40;;
65658;SDS011;60181;53.258;6.932;2022-12-18T20:13:17;6.90;;;3.40;;
65658;SDS011;60181;53.258;6.932;2022-12-18T20:17:45;5.80;;;3.30;;
65658;SDS011;60181;53.258;6.932;2022-12-18T20:22:13;5.80;;;3.30;;
65658;SDS011;60181;53.258;6.932;2022-12-18T20:26:41;6.60;;;3.50;;
65658;SDS011;60181;53.258;6.932;2022-12-18T20:31:09;6.60;;;3.50;;
65658;SDS011;60181;53.258;6.932;2022-12-18T20:35:37;5.30;;;3.10;;
65658;SDS011;60181;53.258;6.932;2022-12-18T20:40:05;5.30;;;3.10;;
65658;SDS011;60181;53.258;6.932;2022-12-18T20:44:33;5.10;;;3.20;;
65658;SDS011;60181;53.258;6.932;2022-12-18T20:49:01;5.10;;;3.20;;
65658;SDS011;60181;53.258;6.932;2022-12-18T20:53:29;5.10;;;3.20;;
65658;SDS011;60181;53.258;6.932;2022-12-18T20:57:57;6.10;;;3.20;;
65658;SDS011;60181;53.258;6.932;2022-12-18T21:02:25;6.10;;;3.20;;
65658;SDS011;60181;53.258;6.932;2022-12-18T21:06:53;6.70;;;3.40;;
65658;SDS011;60181;53.258;6.932;2022-12-18T21:15:51;5.90;;;3.30;;
65658;SDS011;60181;53.258;6.932;2022-12-18T21:20:17;5.90;;;3.30;;
65658;SDS011;60181;53.258;6.932;2022-12-18T21:24:45;5.80;;;3.30;;
65658;SDS011;60181;53.258;6.932;2022-12-18T21:29:14;5.80;;;3.30;;
65658;SDS011;60181;53.258;6.932;2022-12-18T21:33:41;5.80;;;3.30;;
65658;SDS011;60181;53.258;6.932;2022-12-18T21:38:09;6.10;;;3.10;;
65658;SDS011;60181;53.258;6.932;2022-12-18T21:42:37;6.10;;;3.10;;
65658;SDS011;60181;53.258;6.932;2022-12-18T21:47:05;6.00;;;3.30;;
65658;SDS011;60181;53.258;6.932;2022-12-18T21:51:33;6.00;;;3.30;;
65658;SDS011;60181;53.258;6.932;2022-12-18T21:56:01;16.70;;;7.00;;
65658;SDS011;60181;53.258;6.932;2022-12-18T22:00:29;16.70;;;7.00;;
65658;SDS011;60181;53.258;6.932;2022-12-18T22:04:57;20.70;;;9.10;;
65658;SDS011;60181;53.258;6.932;2022-12-18T22:09:25;20.70;;;9.10;;
65658;SDS011;60181;53.258;6.932;2022-12-18T22:13:53;20.70;;;9.10;;
65658;SDS011;60181;53.258;6.932;2022-12-18T22:18:21;26.90;;;10.70;;
65658;SDS011;60181;53.258;6.932;2022-12-18T22:22:49;26.90;;;10.70;;
65658;SDS011;60181;53.258;6.932;2022-12-18T22:27:17;28.40;;;12.40;;
65658;SDS011;60181;53.258;6.932;2022-12-18T22:31:45;28.40;;;12.40;;
65658;SDS011;60181;53.258;6.932;2022-12-18T22:36:13;26.80;;;12.10;;
65658;SDS011;60181;53.258;6.932;2022-12-18T22:40:41;26.80;;;12.10;;
65658;SDS011;60181;53.258;6.932;2022-12-18T22:45:09;27.90;;;12.90;;
65658;SDS011;60181;53.258;6.932;2022-12-18T22:49:37;27.90;;;12.90;;
65658;SDS011;60181;53.258;6.932;2022-12-18T22:54:05;27.90;;;12.90;;
65658;SDS011;60181;53.258;6.932;2022-12-18T22:58:33;30.10;;;13.30;;
65658;SDS011;60181;53.258;6.932;2022-12-18T23:03:01;30.10;;;13.30;;
65658;SDS011;60181;53.258;6.932;2022-12-18T23:07:29;31.20;;;15.20;;
65658;SDS011;60181;53.258;6.932;2022-12-18T23:11:57;31.20;;;15.20;;
65658;SDS011;60181;53.258;6.932;2022-12-18T23:16:25;31.80;;;15.10;;
65658;SDS011;60181;53.258;6.932;2022-12-18T23:20:53;31.80;;;15.10;;
65658;SDS011;60181;53.258;6.932;2022-12-18T23:25:21;32.60;;;15.90;;
65658;SDS011;60181;53.258;6.932;2022-12-18T23:29:49;32.60;;;15.90;;
65658;SDS011;60181;53.258;6.932;2022-12-18T23:34:17;35.60;;;16.10;;
65658;SDS011;60181;53.258;6.932;2022-12-18T23:38:48;35.60;;;16.10;;
65658;SDS011;60181;53.258;6.932;2022-12-18T23:43:13;35.60;;;16.10;;
65658;SDS011;60181;53.258;6.932;2022-12-18T23:47:41;37.00;;;16.10;;
65658;SDS011;60181;53.258;6.932;2022-12-18T23:52:09;37.00;;;16.10;;
65658;SDS011;60181;53.258;6.932;2022-12-18T23:56:37;36.90;;;17.00;;
